• Join FlightAware (Why Join?)
  • Login
  • US Flag 
08:54AM EST


 

Airport Tracker/Info


-or-


 

Live Flight TrackerFlight Track Log ✈ SKW5618 ✈ 06-May-2013 ✈ KSFO - KGEG

Flight Track Log - Related Links

Times and Time Zones

All times are in EDT time to prevent confusion due to time zone crossing. See the SKW5618 flight status page for this flight to view local times or setup timezone preferences in your user account.

Time Position Orientation Groundspeed Altitude Reporting Facility
EDT Latitude Longitude Course Direction KTS MPH feet Rate Location/Type
11:55PM 37.6333 -122.4000 North 178 205 1,400  Level Northern Cal TRACON
11:56PM 37.6833 -122.3500 38° Northeast 244 281 3,400 2,127 Climbing Northern Cal TRACON
11:57PM 37.6947 -122.3364 43° Northeast 254 292 4,200 2,700 Climbing Oakland Center
11:58PM 37.8959 -122.2000 North  Level FlightAware Approximate
11:58PM 37.7547 -122.2867 33° Northeast 268 308 7,000  Level Oakland Center
11:59PM 38.0092 -122.1957 North  Level FlightAware Approximate
11:59PM 37.8333 -122.2844 North 281 323 9,800  Level Oakland Center
12:00AM 38.1222 -122.1844 North  Level FlightAware Approximate
12:00AM 37.9167 -122.2831 North 294 338 11,700  Level Oakland Center
12:01AM 38.2353 -122.1732 North  Level FlightAware Approximate
12:01AM 38.0064 -122.2811 North 321 369 14,000  Level Oakland Center
12:02AM 38.1133 -122.2469 14° North 337 388 16,600 2,262 Climbing Oakland Center
12:03AM 38.2019 -122.2089 19° North 338 389 18,600 1,721 Climbing Oakland Center
12:04AM 38.2906 -122.1717 18° North 338 389 20,100 1,426 Climbing Oakland Center
12:05AM 38.3814 -122.1317 19° North 346 398 21,500 1,328 Climbing Oakland Center
12:06AM 38.4761 -122.0917 18° North 357 411 22,800 1,131 Climbing Oakland Center
12:07AM 38.5703 -122.0519 18° North 357 411 23,800 992 Climbing Oakland Center
12:08AM 38.6672 -122.0100 19° North 367 422 24,800 1,041 Climbing Oakland Center
12:09AM 38.7722 -121.9650 18° North 369 425 25,900 885 Climbing Oakland Center
12:10AM 38.8731 -121.9208 19° North 378 435 26,600 689 Climbing Oakland Center
12:11AM 38.9750 -121.8781 18° North 382 440 27,300 689 Climbing Oakland Center
12:12AM 39.0783 -121.8336 18° North 388 447 28,000 738 Climbing Oakland Center
12:13AM 39.1822 -121.7883 19° North 392 451 28,800 885 Climbing Oakland Center
12:14AM 39.2847 -121.7425 19° North 390 449 29,800 1,033 Climbing Oakland Center
12:15AM 39.3844 -121.6992 19° North 379 436 30,900 934 Climbing Oakland Center
12:16AM 39.4806 -121.6572 19° North 366 421 31,700 541 Climbing Oakland Center
12:17AM 39.5769 -121.6147 19° North 361 415 32,000 148 Climbing Oakland Center
12:18AM 39.6756 -121.5700 19° North 373 429 32,000  Level Oakland Center
12:19AM 39.7767 -121.5244 19° North 383 441 32,000  Level Oakland Center
12:20AM 39.8811 -121.4783 19° North 393 452 32,000  Level Oakland Center
12:21AM 40.0081 -121.4214 19° North 403 464 32,000  Level Oakland Center
12:22AM 40.1156 -121.3739 19° North 407 468 32,000  Level Oakland Center
12:23AM 40.2228 -121.3275 18° North 407 468 32,000  Level Oakland Center
12:24AM 40.3294 -121.2789 19° North 408 470 32,000  Level Oakland Center
12:25AM 40.4347 -121.2317 19° North 405 466 32,000  Level Oakland Center
12:26AM 40.5403 -121.1822 20° North 404 465 32,000 98 Level Oakland Center
12:27AM 40.6575 -121.1317 18° North 405 466 32,200 353 Climbing Oakland Center
12:28AM 40.7217 -121.0997 21° North 407 468 32,600 471 Climbing Seattle Center
12:29AM 40.8250 -121.0531 19° North 395 455 33,000 198 Climbing Seattle Center
12:30AM 40.9286 -121.0056 19° North 397 457 33,000  Level Seattle Center
12:31AM 41.0339 -120.9575 19° North 399 459 33,000  Level Seattle Center
12:32AM 41.1400 -120.9083 19° North 404 465 33,000  Level Seattle Center
12:33AM 41.2458 -120.8600 19° North 405 466 33,000  Level Seattle Center
12:34AM 41.3528 -120.8108 19° North 407 468 33,000 148 Level Seattle Center
12:35AM 41.4592 -120.7606 20° North 407 468 33,300 397 Climbing Seattle Center
12:36AM 41.5706 -120.7064 20° North 406 467 33,800 496 Climbing Seattle Center
12:37AM 41.6900 -120.6514 19° North 398 458 34,300 443 Climbing Seattle Center
12:38AM 41.7931 -120.6031 19° North 395 455 34,700 298 Climbing Seattle Center
12:39AM 41.8969 -120.5547 19° North 396 456 34,900 298 Climbing Seattle Center
12:40AM 42.0000 -120.5047 20° North 396 456 35,300 295 Climbing Seattle Center
12:41AM 42.1025 -120.4550 20° North 395 455 35,500 298 Climbing Seattle Center
12:42AM 42.2067 -120.4061 19° North 398 458 35,900 248 Climbing Seattle Center
12:43AM 42.3103 -120.3561 20° North 398 458 36,000 50 Climbing Seattle Center
12:44AM 42.4142 -120.3050 20° North 399 459 36,000  Level Seattle Center
12:45AM 42.5197 -120.2542 20° North 403 464 36,000  Level Seattle Center
12:46AM 42.6258 -120.2022 20° North 408 470 36,000  Level Seattle Center
12:47AM 42.7342 -120.1478 20° North 414 476 36,000  Level Seattle Center
12:48AM 42.8442 -120.0967 19° North 419 482 36,000  Level Seattle Center
12:49AM 42.9542 -120.0414 20° North 422 486 36,000  Level Seattle Center
12:50AM 43.0661 -119.9867 20° North 428 493 36,000  Level Seattle Center
12:51AM 43.1781 -119.9297 20° North 431 496 36,000  Level Seattle Center
12:52AM 43.2903 -119.8739 20° North 431 496 36,000  Level Seattle Center
12:53AM 43.4236 -119.8064 20° North 431 496 36,000  Level Seattle Center
12:54AM 43.5361 -119.7497 20° North 432 497 36,000  Level Seattle Center
12:55AM 43.6478 -119.6944 20° North 428 493 36,000  Level Seattle Center
12:56AM 43.7597 -119.6394 20° North 428 493 36,000  Level Seattle Center
12:57AM 43.8717 -119.5828 20° North 429 494 36,000  Level Seattle Center
12:58AM 43.9819 -119.5256 20° North 426 490 36,000  Level Seattle Center
12:59AM 44.0933 -119.4694 20° North 427 491 36,000  Level Seattle Center
01:00AM 44.2036 -119.4128 20° North 425 489 36,000  Level Seattle Center
01:01AM 44.3136 -119.3567 20° North 422 486 36,000  Level Seattle Center
01:02AM 44.4233 -119.2994 20° North 425 489 36,000  Level Seattle Center
01:03AM 44.5319 -119.2422 21° North 421 484 36,000  Level Seattle Center
01:04AM 44.6417 -119.1861 20° North 421 484 36,000  Level Seattle Center
01:05AM 44.7714 -119.1178 21° North 418 481 36,000  Level Seattle Center
01:06AM 44.8789 -119.0614 20° North 417 480 36,000  Level Seattle Center
01:07AM 44.9875 -119.0036 21° North 418 481 36,000  Level Seattle Center
01:08AM 45.0950 -118.9486 20° North 414 476 36,000  Level Seattle Center
01:09AM 45.2000 -118.8917 21° North 408 470 36,000  Level Seattle Center
01:10AM 45.3072 -118.8342 21° North 412 474 36,000  Level Seattle Center
01:11AM 45.4133 -118.7775 21° North 411 473 36,000  Level Seattle Center
01:12AM 45.5203 -118.7194 21° North 409 471 36,000  Level Seattle Center
01:13AM 45.6275 -118.6603 21° North 414 476 36,000  Level Seattle Center
01:14AM 45.7333 -118.6031 21° North 409 471 36,000  Level Seattle Center
01:15AM 45.8403 -118.5456 21° North 410 472 36,000  Level Seattle Center
01:16AM 45.9533 -118.4814 22° Northeast 407 468 36,000  Level Seattle Center
01:17AM 46.0581 -118.4236 21° North 404 465 36,000  Level Seattle Center
01:18AM 46.1642 -118.3658 21° North 407 468 36,000  Level Seattle Center
01:19AM 46.2686 -118.3069 21° North 405 466 36,000 -248 Level Seattle Center
01:20AM 46.3742 -118.2469 21° North 406 467 35,500 -1,672 Descending Seattle Center
01:21AM 46.4844 -118.1872 20° North 423 487 32,600 -3,074 Descending Seattle Center
01:22AM 46.5958 -118.1242 21° North 429 494 29,300 -3,273 Descending Seattle Center
01:23AM 46.7033 -118.0611 22° Northeast 419 482 26,000 -3,273 Descending Seattle Center
01:24AM 46.8103 -118.0008 21° North 412 474 22,700 -3,273 Descending Seattle Center
01:25AM 46.9122 -117.9439 21° North 395 455 19,400 -3,322 Descending Seattle Center
01:26AM 47.0125 -117.8853 22° Northeast 391 450 16,000 -3,174 Descending Seattle Center
01:28AM 47.1069 -117.8308 21° North 364 419 13,000 -2,628 Descending Seattle Center
01:29AM 47.1992 -117.7800 21° North 354 407 10,700 -1,884 Descending Seattle Center
01:30AM 47.2775 -117.7339 22° Northeast 301 346 9,200 -1,736 Descending Seattle Center
01:31AM 47.3558 -117.7017 16° North 295 339 7,200 -2,132 Descending Seattle Center
01:32AM 47.4325 -117.6739 14° North 284 327 4,900 -2,262 Descending Seattle Center